• Join FlightAware (Why Join?)
  • Login
  • US Flag 
08:14AM EDT


 

Airport Tracker/Info


-or-


 

Live Flight TrackerFlight Track Log ✈ UPS2054 ✈ 19-Nov-2013 ✈ KSDF - KMHT

Flight Track Log - Related Links

Times and Time Zones

All times are in EST time to prevent confusion due to time zone crossing. See the UPS2054 flight status page for this flight to view local times or setup timezone preferences in your user account.

Time Position Orientation Groundspeed Altitude Reporting Facility
EST Latitude Longitude Course Direction KTS MPH feet Rate Location/Type
05:01PM 38.2500 -85.8000 99° East 240 276 4,600  Level Louisville TRACON
05:02PM 38.3169 -85.7636 23° Northeast 256 295 8,000 2,220 Climbing Indianapolis Center
05:03PM 38.2900 -85.6719 111° Southeast 283 326 9,900 1,740 Climbing Indianapolis Center
05:04PM 38.2492 -85.5686 117° Southeast 325 374 11,700 2,460 Climbing Indianapolis Center
05:05PM 38.2458 -85.4397 92° East 369 425 15,000 3,360 Climbing Indianapolis Center
05:06PM 38.0219 -84.9072 99° East  Level FlightAware Approximate
05:06PM 38.2511 -85.2711 88° East 396 456 18,700  Level Indianapolis Center
05:07PM 38.2433 -85.1300 94° East 418 481 21,300 2,520 Climbing Indianapolis Center
05:08PM 38.2333 -84.9744 95° East 437 503 24,000 2,280 Climbing Indianapolis Center
05:09PM 38.2222 -84.8111 95° East 459 528 26,100 2,160 Climbing Indianapolis Center
05:10PM 38.2289 -84.6078 88° East 487 560 28,600 2,580 Climbing Indianapolis Center
05:11PM 38.2378 -84.4333 86° East 493 567 31,500 2,400 Climbing Indianapolis Center
05:12PM 38.2458 -84.2619 87° East 487 560 33,600 1,680 Climbing Indianapolis Center
05:13PM 38.2561 -84.0906 86° East 485 558 35,000 660 Climbing Indianapolis Center
05:14PM 38.2639 -83.9150 87° East 494 568 35,000  Level Indianapolis Center
05:15PM 38.2744 -83.7122 86° East 491 565 35,000  Level Indianapolis Center
05:17PM 38.2817 -83.5403 87° East 487 560 35,000  Level Indianapolis Center
05:18PM 38.2892 -83.3681 87° East 486 559 35,000  Level Indianapolis Center
05:19PM 38.3089 -83.1986 82° East 483 556 35,000  Level Indianapolis Center
05:20PM 38.3389 -83.0308 77° East 484 557 35,000  Level Indianapolis Center
05:21PM 38.3864 -82.8733 69° East 483 556 35,000  Level Indianapolis Center
05:22PM 38.4697 -82.7033 58° Northeast 482 555 35,000  Level Indianapolis Center
05:23PM 38.5414 -82.5594 57° Northeast 479 551 35,000  Level Indianapolis Center
05:24PM 38.6111 -82.4178 58° Northeast 483 556 35,000  Level Indianapolis Center
05:25PM 38.6839 -82.2739 57° Northeast 480 552 35,000  Level Indianapolis Center
05:26PM 38.7586 -82.1272 57° Northeast 486 559 35,000  Level Indianapolis Center
05:27PM 38.8339 -81.9819 56° Northeast 486 559 35,000  Level Indianapolis Center
05:28PM 38.9086 -81.8339 57° Northeast 486 559 35,000  Level Indianapolis Center
05:29PM 38.9839 -81.6853 57° Northeast 490 564 35,000  Level Indianapolis Center
05:30PM 39.0736 -81.5075 57° Northeast 488 562 35,000  Level Indianapolis Center
05:31PM 39.1481 -81.3597 57° Northeast 487 560 35,000  Level Indianapolis Center
05:32PM 39.2222 -81.2092 58° Northeast 494 568 35,000  Level Indianapolis Center
05:33PM 39.2961 -81.0606 57° Northeast 490 564 35,000  Level Indianapolis Center
05:34PM 39.3689 -80.9128 57° Northeast 487 560 35,000  Level Indianapolis Center
05:35PM 39.4247 -80.7472 66° East 497 572 35,000  Level Indianapolis Center
05:36PM 39.4811 -80.5856 66° East 493 567 35,000  Level Indianapolis Center
05:37PM 39.5383 -80.4228 65° Northeast 493 567 35,000  Level Indianapolis Center
05:38PM 39.6228 -80.2417 59° Northeast 487 560 35,000  Level Indianapolis Center
05:39PM 39.6914 -80.1264 52° Northeast 487 560 35,000  Level Cleveland Center
05:40PM 39.7733 -79.9881 52° Northeast 486 559 35,000  Level Cleveland Center
05:43PM 40.0417 -79.5305 52° Northeast 481 554 35,000  Level FlightAware ADS-B (KWWD)
05:44PM 40.1144 -79.4064 52° Northeast 483 556 35,000  Level Cleveland Center
05:45PM 40.1933 -79.2681 53° Northeast 478 550 35,000  Level Cleveland Center
05:46PM 40.2897 -79.1022 53° Northeast 479 551 35,000  Level Cleveland Center
05:47PM 40.3689 -78.9625 53° Northeast 480 552 35,000  Level Cleveland Center
05:49PM 40.4478 -78.8236 53° Northeast 480 552 35,000  Level Cleveland Center
05:50PM 40.5278 -78.6844 53° Northeast 481 554 35,000  Level Cleveland Center
05:51PM 40.6058 -78.5461 53° Northeast 478 550 35,000  Level Cleveland Center
05:52PM 40.7000 -78.3781 53° Northeast 479 551 35,000  Level Cleveland Center
05:57PM 41.1315 -77.5079 53° Northeast 489 563 35,000  Level FlightAware ADS-B (KWWD)
05:58PM 41.1790 -77.4000 60° Northeast 489 563 35,000  Level FlightAware ADS-B (KWWD)
05:59PM 41.2141 -77.3201 60° Northeast 487 560 35,000  Level FlightAware ADS-B (KWWD)
05:59PM 41.2481 -77.2424 60° Northeast 491 565 35,000  Level FlightAware ADS-B (KWWD)
06:00PM 41.2901 -77.1462 60° Northeast 492 566 35,000  Level FlightAware ADS-B (KWWD)
06:02PM 41.4336 -76.8148 60° Northeast 492 566 35,000  Level FlightAware ADS-B (KWWD)
06:05PM 41.6481 -76.3125 60° Northeast 495 570 35,000  Level FlightAware ADS-B (KWWD)
06:06PM 41.6985 -76.1932 60° Northeast 495 570 35,000  Level FlightAware ADS-B (KWWD)
06:07PM 41.7902 -75.9749 61° Northeast 495 570 35,000  Level FlightAware ADS-B (KWWD)
06:08PM 41.8238 -75.8945 61° Northeast 491 565 35,000  Level FlightAware ADS-B (KWWD)
06:09PM 41.9305 -75.6380 61° Northeast 485 558 35,000  Level FlightAware ADS-B (KWWD)
06:10PM 41.9756 -75.5292 61° Northeast 489 563 35,000  Level Boston Center
06:12PM 42.1106 -75.2133 60° Northeast 486 559 35,000 -240 Level Boston Center
06:13PM 42.1842 -75.0692 55° Northeast 474 545 34,400 -780 Descending Boston Center
06:14PM 42.2747 -74.9456 45° Northeast 464 534 33,500 -960 Descending Boston Center
06:15PM 42.3814 -74.8006 45° Northeast 452 520 32,500 -780 Descending Boston Center
06:16PM 42.4678 -74.6817 45° Northeast 442 509 31,900 -660 Descending Boston Center
06:17PM 42.5486 -74.5597 48° Northeast 445 512 31,200 -1,140 Descending Boston Center
06:18PM 42.5961 -74.3983 68° East 491 565 29,700 -1,440 Descending Boston Center
06:23PM 42.6873 -73.5070 68° East 446 513 23,000 -1,800 Descending FlightAware ADS-B
06:24PM 42.7014 -73.3569 83° East 438 504 19,500 -2,220 Descending FlightAware ADS-B
06:25PM 42.7154 -73.2038 83° East 438 504 19,000 -360 Descending FlightAware ADS-B
06:26PM 42.7068 -73.2975 263° West 432 497 19,000  Level FlightAware ADS-B
06:27PM 42.7344 -72.9919 83° East 437 503 19,000 -300 Level FlightAware ADS-B
06:27PM 42.7485 -72.8319 83° East 430 495 18,600 -1,260 Descending FlightAware ADS-B
06:28PM 42.7567 -72.7365 83° East 431 496 17,400 -2,160 Descending FlightAware ADS-B
06:28PM 42.7658 -72.6311 83° East 422 486 16,100 -1,980 Descending FlightAware ADS-B
06:29PM 42.7729 -72.5485 83° East 415 478 15,100 -1,860 Descending FlightAware ADS-B
06:30PM 42.7815 -72.4443 84° East 408 470 13,900 -2,040 Descending FlightAware ADS-B
06:30PM 42.7831 -72.4251 84° East 404 465 13,300 -1,920 Descending FlightAware ADS-B (KSNC)
06:30PM 42.7905 -72.3409 83° East 394 453 12,400 -1,680 Descending FlightAware ADS-B
06:31PM 42.7939 -72.2975 84° East 386 444 11,300 -1,740 Descending FlightAware ADS-B
06:32PM 42.8025 -72.1879 84° East 373 429 10,400 -1,200 Descending FlightAware ADS-B
06:32PM 42.8066 -72.0954 86° East 354 407 10,100 -480 Descending FlightAware ADS-B
06:33PM 42.7982 -72.0591 107° East 342 394 10,000 -180 Descending FlightAware ADS-B
06:33PM 42.7863 -72.0125 109° East 320 368 10,000 -360 Level FlightAware ADS-B
06:33PM 42.7769 -71.9749 109° East 309 356 9,800 -1,080 Descending FlightAware ADS-B
06:34PM 42.7641 -71.9185 107° East 292 336 9,100 -1,680 Descending FlightAware ADS-B
06:34PM 42.7635 -71.8864 91° East 287 330 8,400 -2,520 Descending FlightAware ADS-B
06:34PM 42.7634 -71.8751 91° East 286 329 7,600 -2,400 Descending FlightAware ADS-B
06:34PM 42.7622 -71.8349 92° East 282 325 7,300 -2,100 Descending FlightAware ADS-B
06:35PM 42.7609 -71.7968 93° East 278 320 6,500 -2,280 Descending FlightAware ADS-B
06:35PM 42.7599 -71.7589 92° East 276 318 5,700 -2,160 Descending FlightAware ADS-B
06:35PM 42.7596 -71.7451 92° East 274 315 5,400 -1,920 Descending FlightAware ADS-B (KBOS)
06:35PM 42.7596 -71.7451 92° East 273 314 5,100 -2,100 Descending FlightAware ADS-B (KBOS)
06:36PM 42.7595 -71.6890 90° East 273 314 4,300 -2,160 Descending FlightAware ADS-B
06:36PM 42.7595 -71.6548 90° East 273 314 3,600 -1,680 Descending FlightAware ADS-B
06:36PM 42.7593 -71.6193 90° East 268 308 3,200 -780 Descending FlightAware ADS-B
06:37PM 42.7594 -71.5869 90° East 255 293 3,100 -360 Descending FlightAware ADS-B
06:37PM 42.7596 -71.5584 89° East 243 280 3,000 -540 Descending FlightAware ADS-B
06:37PM 42.7602 -71.5312 88° East 236 272 2,800 -300 Descending FlightAware ADS-B
06:38PM 42.7608 -71.4986 89° East 218 251 2,800 -420 Level FlightAware ADS-B
06:38PM 42.7611 -71.4717 89° East 210 242 2,500 -780 Descending FlightAware ADS-B
06:38PM 42.7611 -71.4449 90° East 212 244 2,300 -300 Descending FlightAware ADS-B
06:39PM 42.7624 -71.4179 86° East 212 244 2,300  Level FlightAware ADS-B
06:39PM 42.7659 -71.4070 67° East 203 234 2,300  Level FlightAware ADS-B
06:39PM 42.7757 -71.3816 62° Northeast 208 239 2,300 120 Level FlightAware ADS-B
06:40PM 42.7838 -71.3598 63° Northeast 183 211 2,400  Climbing FlightAware ADS-B
06:40PM 42.7918 -71.3435 56° Northeast 151 174 2,300 -300 Descending FlightAware ADS-B
06:40PM 42.7939 -71.3423 24° Northeast 143 165 2,300  Level FlightAware ADS-B (KBOS)
06:40PM 42.7982 -71.3421 North 132 152 2,300  Level FlightAware ADS-B
06:40PM 42.8006 -71.3436 336° Northwest 127 146 2,300  Level FlightAware ADS-B (KBOS)
06:41PM 42.8062 -71.3533 308° West 128 147 2,300  Level FlightAware ADS-B (KBOS)
06:41PM 42.8104 -71.3594 313° West 120 138 2,300  Level FlightAware ADS-B
06:41PM 42.8145 -71.3635 324° Northwest 125 144 2,300 180 Level FlightAware ADS-B (KBOS)
06:41PM 42.8261 -71.3710 334° Northwest 124 143 2,400 -480 Climbing FlightAware ADS-B
06:42PM 42.8365 -71.3768 338° Northwest 105 121 2,000 -900 Descending FlightAware ADS-B
06:42PM 42.8460 -71.3828 335° Northwest 113 130 1,800 -780 Descending FlightAware ADS-B
06:42PM 42.8553 -71.3886 335° Northwest 105 121 1,500 -780 Descending FlightAware ADS-B
06:43PM 42.8648 -71.3943 336° Northwest 112 129 1,300 -600 Descending FlightAware ADS-B
06:43PM 42.8744 -71.3999 337° Northwest 106 122 1,100 -600 Descending FlightAware ADS-B
06:43PM 42.8842 -71.4056 337° Northwest 106 122 900 -660 Descending FlightAware ADS-B
06:44PM 42.8931 -71.4108 337° Northwest 111 128 700 -660 Descending FlightAware ADS-B
06:44PM 42.9031 -71.4167 337° Northwest 121 139 500 -600 Descending FlightAware ADS-B
06:44PM 42.9134 -71.4228 336° Northwest 125 144 300 -240 Descending FlightAware ADS-B
06:45PM 42.9275 -71.4314 336° Northwest 120 138 300  Level Boston Center
06:47PM 42.9167 -71.4333 316° Northwest  Level FlightAware Approximate